Time;durP1;ratioP1;P1;durP2;ratioP2;P2;SDS_P1;SDS_P2;PMS_P1;PMS_P2;Temp;Humidity;BMP_temperature;BMP_pressure;BME280_temperature;BME280_humidity;BME280_pressure;Samples;Min_cycle;Max_cycle;Signal;HPM_P1;HPM_P2
2022/08/07 00:10:00;;;;;;;0.47;0.30;;;29.20;39.90;;;;;;20658142;28;20049;-72
2022/08/07 00:20:00;;;;;;;0.30;0.30;;;29.20;39.90;;;;;;20641766;28;20105;-71
2022/08/07 00:30:02;;;;;;;0.63;0.40;;;29.20;39.90;;;;;;20673285;28;20617;-72
2022/08/07 00:40:04;;;;;;;0.95;0.38;;;29.10;39.80;;;;;;20642236;28;20466;-71
2022/08/07 00:50:05;;;;;;;0.32;0.30;;;29.10;39.80;;;;;;20630522;28;20035;-72
2022/08/07 01:00:07;;;;;;;0.60;0.30;;;29.10;39.90;;;;;;20653763;28;20065;-72
2022/08/07 01:10:08;;;;;;;2.17;0.60;;;29.10;39.80;;;;;;21078287;23;20134;-70
2022/08/07 01:20:10;;;;;;;0.68;0.40;;;29.00;39.70;;;;;;20750091;28;20128;-72
2022/08/07 01:30:11;;;;;;;1.60;0.47;;;29.00;39.70;;;;;;20732785;28;20070;-72
2022/08/07 01:40:12;;;;;;;2.10;0.55;;;29.00;39.80;;;;;;20732127;28;20042;-71
2022/08/07 01:50:14;;;;;;;0.75;0.60;;;28.90;39.70;;;;;;20747811;28;20057;-74
2022/08/07 02:00:16;;;;;;;0.73;0.55;;;28.90;39.70;;;;;;20714419;28;20038;-72
2022/08/07 02:10:21;;;;;;;1.88;0.50;;;28.90;39.60;;;;;;20729683;28;20049;-73
2022/08/07 02:20:22;;;;;;;0.60;0.60;;;28.80;39.60;;;;;;20729219;28;20029;-71
2022/08/07 02:30:23;;;;;;;3.00;0.67;;;28.80;39.60;;;;;;20745159;28;20542;-71
2022/08/07 02:40:25;;;;;;;1.67;0.90;;;28.70;39.50;;;;;;20711004;28;20292;-72
2022/08/07 02:50:28;;;;;;;1.03;0.60;;;28.70;39.50;;;;;;20726438;28;20034;-72
2022/08/07 03:00:29;;;;;;;1.20;0.90;;;28.60;39.50;;;;;;20727529;28;20041;-74
2022/08/07 03:10:31;;;;;;;1.02;0.70;;;28.60;39.50;;;;;;20723899;28;20042;-71
2022/08/07 03:20:32;;;;;;;1.00;0.90;;;28.60;39.50;;;;;;20725739;28;20503;-74
2022/08/07 03:30:32;;;;;;;1.85;0.80;;;28.50;39.40;;;;;;20739942;28;20319;-72
2022/08/07 03:40:33;;;;;;;2.40;0.90;;;28.60;39.50;;;;;;20722994;28;20048;-72
2022/08/07 03:50:34;;;;;;;1.35;0.88;;;28.50;39.50;;;;;;20739118;28;20296;-72
2022/08/07 04:00:35;;;;;;;1.52;1.10;;;28.40;39.40;;;;;;20722782;28;20043;-72
2022/08/07 04:10:36;;;;;;;1.92;1.20;;;28.40;39.40;;;;;;20706783;28;20076;-71
2022/08/07 04:20:37;;;;;;;1.65;1.10;;;28.40;39.40;;;;;;20721832;28;20049;-73
2022/08/07 04:30:38;;;;;;;3.70;1.07;;;28.30;39.40;;;;;;20753042;28;20125;-72
2022/08/07 04:40:44;;;;;;;1.75;1.35;;;28.30;39.30;;;;;;20721214;28;20292;-72
2022/08/07 04:50:55;;;;;;;1.67;1.00;;;28.30;39.40;;;;;;20735723;28;20069;-71
2022/08/07 05:01:13;;;;;;;2.45;1.80;;;28.20;39.30;;;;;;20736768;28;20041;-74
2022/08/07 05:11:21;;;;;;;1.20;0.90;;;28.20;39.30;;;;;;20735304;28;20116;-72
2022/08/07 05:21:24;;;;;;;1.98;1.58;;;28.20;39.40;;;;;;20717092;28;20033;-73
2022/08/07 05:31:27;;;;;;;2.60;1.77;;;28.20;39.50;;;;;;20732465;28;20034;-73
2022/08/07 05:41:31;;;;;;;1.98;1.38;;;28.20;39.70;;;;;;20715252;28;20392;-72
2022/08/07 05:51:31;;;;;;;2.35;1.42;;;28.10;39.80;;;;;;20732540;28;20033;-72
2022/08/07 06:01:32;;;;;;;2.38;1.77;;;28.10;39.90;;;;;;20730871;28;20435;-73
2022/08/07 06:11:33;;;;;;;1.83;1.57;;;28.20;40.10;;;;;;20730113;28;20045;-72
2022/08/07 06:21:34;;;;;;;1.98;1.55;;;28.10;40.10;;;;;;20713109;28;20767;-71
2022/08/07 06:31:35;;;;;;;2.70;1.50;;;28.10;40.20;;;;;;20729163;28;20041;-71
2022/08/07 06:41:45;;;;;;;2.47;1.58;;;28.10;40.30;;;;;;20727965;28;20037;-72
2022/08/07 06:51:46;;;;;;;2.45;1.50;;;28.10;40.40;;;;;;20712460;28;20038;-71
2022/08/07 07:01:47;;;;;;;2.55;1.58;;;28.10;40.40;;;;;;20726496;28;20120;-73
2022/08/07 07:12:07;;;;;;;2.58;2.00;;;28.10;40.50;;;;;;20708610;28;20556;-72
2022/08/07 07:22:07;;;;;;;2.28;1.50;;;28.10;40.60;;;;;;20725752;28;20041;-71
2022/08/07 07:32:10;;;;;;;2.33;1.48;;;28.10;40.80;;;;;;20708597;28;20037;-74
2022/08/07 07:42:10;;;;;;;2.30;1.63;;;28.10;40.80;;;;;;20708581;28;20038;-74
2022/08/07 07:52:11;;;;;;;2.57;1.60;;;28.10;40.90;;;;;;20723721;28;20038;-77
2022/08/07 08:02:12;;;;;;;2.35;1.88;;;28.10;40.80;;;;;;20734349;28;20042;-77
2022/08/07 08:12:12;;;;;;;2.03;1.67;;;28.20;40.90;;;;;;20723600;28;20408;-71
2022/08/07 08:32:35;;;;;;;2.35;1.50;;;28.20;41.60;;;;;;20755324;28;20041;-72
2022/08/07 08:42:37;;;;;;;;;;;28.20;40.90;;;;;;20721550;28;20034;-74
2022/08/07 08:52:41;;;;;;;2.15;1.63;;;28.20;41.10;;;;;;20753381;28;19917;-70
2022/08/07 09:02:55;;;;;;;2.75;1.40;;;28.10;41.10;;;;;;20736546;28;20116;-71
2022/08/07 09:13:08;;;;;;;2.23;1.80;;;28.20;41.20;;;;;;20718740;28;20045;-71
2022/08/07 09:23:29;;;;;;;2.83;1.77;;;28.10;41.10;;;;;;20735050;28;20443;-72
2022/08/07 09:34:02;;;;;;;3.17;1.63;;;28.20;40.90;;;;;;20735843;28;20054;-73
2022/08/07 09:44:18;;;;;;;1.60;1.10;;;28.40;40.70;;;;;;20734991;28;20034;-71
2022/08/07 09:54:23;;;;;;;1.85;1.55;;;28.50;40.40;;;;;;20748922;28;20510;-71
2022/08/07 10:04:32;;;;;;;1.55;1.33;;;28.60;40.30;;;;;;20715470;28;20550;-74
2022/08/07 10:15:06;;;;;;;2.38;1.63;;;28.60;40.20;;;;;;20729963;28;20046;-71
2022/08/07 10:25:26;;;;;;;2.40;1.60;;;28.60;40.20;;;;;;20712347;28;20029;-71
2022/08/07 10:35:45;;;;;;;1.45;1.05;;;28.60;40.20;;;;;;20731342;28;20041;-72
2022/08/07 10:45:48;;;;;;;1.45;1.05;;;28.50;40.30;;;;;;20745259;28;20045;-72
2022/08/07 10:56:26;;;;;;;3.20;1.50;;;28.50;40.40;;;;;;20711346;28;20038;-72
2022/08/07 11:06:44;;;;;;;2.05;1.30;;;28.40;40.40;;;;;;20743396;28;20498;-71
2022/08/07 11:17:02;;;;;;;1.73;1.42;;;28.40;40.40;;;;;;20709775;28;20048;-73
2022/08/07 11:27:12;;;;;;;1.55;1.10;;;28.40;40.40;;;;;;20708896;28;20042;-71
2022/08/07 11:37:26;;;;;;;1.95;1.10;;;28.40;40.50;;;;;;20724261;28;20045;-73
2022/08/07 11:47:50;;;;;;;;;;;28.30;40.40;;;;;;20723876;28;20133;-72
2022/08/07 11:57:54;;;;;;;1.50;1.02;;;28.30;40.50;;;;;;20731986;28;19924;-74
2022/08/07 12:08:03;;;;;;;1.20;0.90;;;28.30;40.50;;;;;;20707469;28;20049;-71
2022/08/07 12:18:23;;;;;;;1.42;1.10;;;28.30;40.50;;;;;;20722464;28;20034;-72
2022/08/07 12:28:46;;;;;;;1.45;1.00;;;28.30;40.40;;;;;;20722287;28;20469;-72
2022/08/07 12:38:47;;;;;;;1.67;1.15;;;28.30;40.30;;;;;;20723487;28;20044;-70
2022/08/07 12:49:06;;;;;;;1.10;0.82;;;28.30;40.40;;;;;;20716342;28;20484;-70
2022/08/07 12:59:07;;;;;;;1.15;0.90;;;28.30;40.30;;;;;;20736966;28;20503;-73
2022/08/07 13:09:33;;;;;;;1.58;1.10;;;28.30;40.40;;;;;;20752484;28;20041;-72
2022/08/07 13:19:51;;;;;;;1.77;1.08;;;28.30;40.30;;;;;;20737205;28;20116;-72
2022/08/07 13:29:57;;;;;;;3.65;1.10;;;28.30;40.30;;;;;;20734592;28;20105;-72
2022/08/07 13:40:07;;;;;;;2.30;0.82;;;28.30;40.40;;;;;;20717229;28;20056;-75
2022/08/07 13:50:08;;;;;;;1.38;0.88;;;28.30;40.50;;;;;;20750326;28;20042;-72
2022/08/07 14:00:09;;;;;;;1.17;0.90;;;28.30;40.70;;;;;;20731650;28;20072;-72
2022/08/07 14:10:17;;;;;;;1.05;0.80;;;28.40;40.70;;;;;;20732657;28;20049;-72
2022/08/07 14:20:19;;;;;;;0.90;0.85;;;28.40;40.60;;;;;;20746157;28;20026;-71
2022/08/07 14:30:20;;;;;;;1.07;0.90;;;28.40;40.50;;;;;;20729306;28;20038;-71
2022/08/07 14:40:22;;;;;;;1.35;0.77;;;28.50;40.40;;;;;;20746630;28;20109;-71
2022/08/07 14:50:25;;;;;;;1.83;0.95;;;28.50;40.30;;;;;;20729253;28;20034;-74
2022/08/07 15:00:28;;;;;;;1.10;1.00;;;28.50;40.30;;;;;;20728403;28;20034;-71
2022/08/07 15:10:29;;;;;;;1.75;0.80;;;28.60;40.10;;;;;;20727951;28;20092;-72
2022/08/07 15:20:30;;;;;;;0.98;0.68;;;28.70;39.80;;;;;;20745770;28;20428;-71
2022/08/07 15:30:32;;;;;;;0.90;0.63;;;28.80;39.80;;;;;;20726331;28;20042;-73
2022/08/07 15:40:33;;;;;;;2.40;1.02;;;28.90;39.60;;;;;;20725009;28;20041;-75
2022/08/07 15:50:39;;;;;;;1.48;0.90;;;29.10;39.50;;;;;;20724746;28;20034;-74
2022/08/07 16:00:39;;;;;;;1.02;0.88;;;29.10;39.40;;;;;;20724207;28;20045;-72
2022/08/07 16:10:41;;;;;;;0.80;0.65;;;29.20;39.40;;;;;;20740857;28;20054;-72
2022/08/07 16:20:48;;;;;;;1.15;0.75;;;29.30;39.30;;;;;;20729258;28;20029;-71
2022/08/07 16:30:54;;;;;;;1.17;0.70;;;29.40;39.30;;;;;;20738558;28;20042;-72
2022/08/07 16:41:14;;;;;;;1.17;0.60;;;29.40;39.30;;;;;;20737040;28;20436;-73
2022/08/07 16:51:33;;;;;;;1.00;0.80;;;29.40;39.40;;;;;;20736399;28;20026;-74
2022/08/07 17:01:36;;;;;;;1.83;0.90;;;29.40;39.40;;;;;;20736651;28;20030;-71
2022/08/07 17:11:57;;;;;;;0.80;0.77;;;29.40;39.40;;;;;;20735245;28;20045;-72
2022/08/07 17:22:02;;;;;;;0.73;0.65;;;29.30;39.40;;;;;;20750360;28;20034;-73
2022/08/07 17:32:12;;;;;;;1.02;0.63;;;29.30;39.50;;;;;;20749049;28;20148;-72
2022/08/07 17:42:26;;;;;;;1.00;0.90;;;29.30;39.50;;;;;;20733446;28;20038;-72
2022/08/07 17:52:49;;;;;;;1.42;0.80;;;29.10;39.40;;;;;;20732637;28;20084;-72
2022/08/07 18:03:06;;;;;;;0.80;0.60;;;29.10;39.60;;;;;;20715267;28;20046;-72
2022/08/07 18:13:09;;;;;;;0.90;0.80;;;29.00;39.70;;;;;;20718301;28;20508;-74
2022/08/07 18:23:13;;;;;;;1.20;0.70;;;28.90;39.90;;;;;;20730506;28;20052;-71
2022/08/07 18:33:52;;;;;;;0.63;0.60;;;28.90;40.10;;;;;;20728619;28;20296;-72
2022/08/07 18:44:22;;;;;;;0.95;0.63;;;28.80;40.20;;;;;;20744870;28;20125;-71
2022/08/07 18:54:49;;;;;;;1.27;0.70;;;28.70;41.00;;;;;;20744562;28;20053;-72
2022/08/07 19:05:02;;;;;;;1.10;0.90;;;28.60;40.40;;;;;;20726114;28;20034;-72
2022/08/07 19:15:25;;;;;;;1.40;0.63;;;28.70;40.60;;;;;;20725867;28;20041;-74
2022/08/07 19:25:26;;;;;;;2.35;0.80;;;28.60;40.60;;;;;;20725608;28;20048;-71
2022/08/07 19:35:27;;;;;;;1.08;0.70;;;28.60;40.80;;;;;;20740740;28;20038;-71
2022/08/07 19:45:27;;;;;;;0.82;0.60;;;28.60;40.90;;;;;;20723736;28;20124;-74
2022/08/07 19:55:28;;;;;;;0.93;0.67;;;28.50;40.90;;;;;;20739424;28;20088;-72
2022/08/07 20:05:30;;;;;;;1.10;0.80;;;28.50;41.00;;;;;;20723622;28;20563;-72
2022/08/07 20:15:32;;;;;;;1.85;0.93;;;28.50;41.10;;;;;;20739131;28;20030;-72
2022/08/07 20:25:33;;;;;;;1.10;0.77;;;28.40;41.00;;;;;;20738807;28;20101;-74
2022/08/07 20:35:39;;;;;;;1.30;0.80;;;28.40;41.10;;;;;;20722603;28;20037;-73
2022/08/07 20:45:42;;;;;;;1.48;0.88;;;28.40;41.20;;;;;;20721288;28;20473;-73
2022/08/07 20:55:45;;;;;;;1.77;1.23;;;28.40;41.20;;;;;;20721254;28;20125;-72
2022/08/07 21:05:48;;;;;;;1.58;1.10;;;28.40;41.20;;;;;;20709327;28;20070;-73
2022/08/07 21:15:51;;;;;;;2.47;1.00;;;28.30;41.80;;;;;;20752154;28;20112;-72
2022/08/07 21:26:16;;;;;;;1.70;1.17;;;28.30;41.10;;;;;;20717445;28;20404;-70
2022/08/07 21:36:35;;;;;;;0.98;0.82;;;28.30;41.20;;;;;;20732915;28;20128;-71
2022/08/07 21:46:46;;;;;;;1.52;1.17;;;28.30;41.20;;;;;;20749013;28;20088;-71
2022/08/07 21:57:27;;;;;;;2.05;1.40;;;28.30;41.20;;;;;;20715969;28;20463;-73
2022/08/07 22:07:28;;;;;;;1.73;1.13;;;28.20;41.20;;;;;;20732724;28;20133;-72
2022/08/07 22:17:36;;;;;;;1.60;1.00;;;28.20;41.20;;;;;;20729335;28;20037;-72
2022/08/07 22:28:09;;;;;;;1.70;1.15;;;28.20;41.20;;;;;;20746636;28;20042;-71
2022/08/07 22:38:30;;;;;;;1.98;1.13;;;28.20;41.20;;;;;;20713934;28;20431;-72
2022/08/07 22:48:40;;;;;;;1.58;0.80;;;28.20;41.30;;;;;;20728440;28;20038;-72
2022/08/07 22:59:01;;;;;;;2.33;1.10;;;28.20;41.30;;;;;;20742631;28;20037;-74
2022/08/07 23:09:14;;;;;;;1.58;1.25;;;28.10;41.20;;;;;;20726385;28;20488;-72
2022/08/07 23:30:06;;;;;;;1.95;1.10;;;28.10;41.30;;;;;;20740317;28;20042;-71
2022/08/07 23:40:28;;;;;;;1.35;1.25;;;28.10;41.30;;;;;;20707810;28;20038;-75
2022/08/07 23:50:41;;;;;;;1.60;1.20;;;28.10;41.30;;;;;;20740048;28;20041;-72
